Time;durP1;ratioP1;P1;durP2;ratioP2;P2;SDS_P1;SDS_P2;PMS_P1;PMS_P2;Temp;Humidity;BMP_temperature;BMP_pressure;BME280_temperature;BME280_humidity;BME280_pressure;Samples;Min_cycle;Max_cycle;Signal;HPM_P1;HPM_P2
2023/09/07 00:02:38;;;;;;;10.18;3.78;;;;;;;16.66;100.00;101053.69;5590172;31;33860;-66
2023/09/07 00:05:45;;;;;;;8.60;3.78;;;;;;;16.48;100.00;101059.44;5589990;31;34088;-66
2023/09/07 00:08:48;;;;;;;7.93;3.92;;;;;;;16.45;100.00;101057.16;5589317;31;34472;-66
2023/09/07 00:11:51;;;;;;;8.85;3.90;;;;;;;16.47;100.00;101061.28;5590322;31;34498;-66
2023/09/07 00:14:54;;;;;;;6.18;3.90;;;;;;;16.53;100.00;101060.53;5589120;31;33830;-66
2023/09/07 00:17:57;;;;;;;5.45;3.45;;;;;;;16.63;100.00;101059.44;5589949;31;34072;-66
2023/09/07 00:21:00;;;;;;;6.90;3.75;;;;;;;16.61;100.00;101067.66;5589840;31;33884;-65
2023/09/07 00:24:05;;;;;;;7.00;3.70;;;;;;;16.50;100.00;101062.78;5589882;31;34540;-66
2023/09/07 00:27:08;;;;;;;8.13;3.75;;;;;;;16.45;100.00;101066.03;5589907;31;34508;-65
2023/09/07 00:30:12;;;;;;;6.60;4.10;;;;;;;16.41;100.00;101063.91;5589981;31;33864;-66
2023/09/07 00:33:14;;;;;;;7.00;3.97;;;;;;;16.32;100.00;101059.66;5589897;31;33895;-65
2023/09/07 00:36:18;;;;;;;6.35;3.67;;;;;;;16.27;100.00;101052.22;5589775;31;34075;-65
2023/09/07 00:39:20;;;;;;;6.90;3.90;;;;;;;16.14;100.00;101048.56;5590178;31;33829;-66
2023/09/07 00:42:23;;;;;;;4.80;3.20;;;;;;;16.12;100.00;101055.97;5589822;31;33821;-66
2023/09/07 00:45:26;;;;;;;4.55;3.53;;;;;;;16.09;100.00;101060.66;5589664;31;34985;-66
2023/09/07 00:48:30;;;;;;;5.75;3.80;;;;;;;16.01;100.00;101063.44;5589709;31;33733;-66
2023/09/07 00:51:33;;;;;;;5.93;3.67;;;;;;;15.95;100.00;101063.34;5589723;31;34409;-66
2023/09/07 00:54:38;;;;;;;5.00;4.00;;;;;;;15.83;100.00;101056.81;5589726;31;33802;-65
2023/09/07 00:57:42;;;;;;;7.05;3.90;;;;;;;15.74;100.00;101055.22;5589716;31;33886;-66
2023/09/07 01:00:46;;;;;;;5.43;3.67;;;;;;;15.73;100.00;101059.78;5589731;31;34141;-65
2023/09/07 01:03:50;;;;;;;4.97;3.37;;;;;;;15.72;100.00;101052.75;5589175;31;34894;-66
2023/09/07 01:07:03;;;;;;;5.30;3.80;;;;;;;15.70;100.00;101051.25;5589855;31;34704;-66
2023/09/07 01:10:07;;;;;;;5.70;3.85;;;;;;;15.69;100.00;101047.75;5588769;31;34848;-66
2023/09/07 01:13:10;;;;;;;5.47;3.80;;;;;;;15.56;100.00;101053.75;5589359;31;34514;-66
2023/09/07 01:16:13;;;;;;;7.28;3.75;;;;;;;15.49;100.00;101051.97;5589521;31;34482;-66
2023/09/07 01:19:16;;;;;;;6.07;3.75;;;;;;;15.53;100.00;101048.78;5589848;31;33923;-66
2023/09/07 01:22:22;;;;;;;6.93;3.78;;;;;;;15.57;100.00;101051.91;5589611;31;33922;-65
2023/09/07 01:25:28;;;;;;;8.48;4.37;;;;;;;15.42;100.00;101059.06;5589432;31;34485;-66
2023/09/07 01:28:31;;;;;;;10.00;4.37;;;;;;;15.28;100.00;101057.19;5589399;31;33917;-66
2023/09/07 01:31:36;;;;;;;5.85;3.83;;;;;;;15.19;100.00;101053.78;5589280;31;33851;-66
2023/09/07 01:34:39;;;;;;;5.20;3.90;;;;;;;15.07;100.00;101050.69;5589184;31;33884;-66
2023/09/07 01:37:43;;;;;;;4.70;3.78;;;;;;;15.05;100.00;101057.25;5589453;31;34647;-66
2023/09/07 01:40:47;;;;;;;5.20;3.95;;;;;;;14.98;100.00;101049.12;5589618;31;35338;-66
2023/09/07 01:43:50;;;;;;;6.50;3.90;;;;;;;15.33;100.00;101052.97;5589206;31;34435;-65
2023/09/07 01:46:54;;;;;;;5.80;3.53;;;;;;;15.42;100.00;101051.88;5589043;31;34907;-66
2023/09/07 01:49:57;;;;;;;6.72;3.60;;;;;;;15.44;100.00;101047.16;5589080;31;34110;-66
2023/09/07 01:53:00;;;;;;;5.45;3.70;;;;;;;15.41;100.00;101060.91;5589088;31;33871;-66
2023/09/07 01:56:03;;;;;;;5.95;3.80;;;;;;;15.28;100.00;101058.03;5589048;31;33878;-66
2023/09/07 01:59:07;;;;;;;4.75;3.75;;;;;;;15.30;100.00;101056.00;5588871;31;33784;-65
2023/09/07 02:02:10;;;;;;;6.80;4.07;;;;;;;15.15;100.00;101050.63;5588775;31;34051;-66
2023/09/07 02:05:16;;;;;;;5.15;3.70;;;;;;;15.12;100.00;101044.81;5588727;31;34836;-66
2023/09/07 02:08:20;;;;;;;8.80;4.15;;;;;;;14.99;100.00;101049.94;5588664;31;34740;-66
2023/09/07 02:11:23;;;;;;;6.87;3.65;;;;;;;14.91;100.00;101061.50;5587864;31;33785;-66
2023/09/07 02:14:26;;;;;;;6.25;3.50;;;;;;;14.90;100.00;101067.06;5588911;31;34015;-66
2023/09/07 02:17:30;;;;;;;6.30;4.00;;;;;;;14.83;100.00;101063.44;5588612;31;34537;-66
2023/09/07 02:20:33;;;;;;;8.40;4.28;;;;;;;14.87;100.00;101056.72;5588393;31;33814;-66
2023/09/07 02:23:39;;;;;;;8.02;4.37;;;;;;;14.95;100.00;101060.16;5590985;31;33992;-66
2023/09/07 02:26:44;;;;;;;6.65;4.05;;;;;;;14.96;100.00;101061.00;5591059;31;33913;-66
2023/09/07 02:29:48;;;;;;;4.60;3.70;;;;;;;14.92;100.00;101060.50;5591288;31;33963;-66
2023/09/07 02:32:51;;;;;;;6.05;3.90;;;;;;;15.12;100.00;101067.03;5590884;31;33992;-66
2023/09/07 02:35:54;;;;;;;7.53;4.40;;;;;;;15.11;100.00;101057.34;5590899;31;33889;-66
2023/09/07 02:38:57;;;;;;;6.05;4.00;;;;;;;15.12;100.00;101053.66;5590815;31;34847;-66
2023/09/07 02:42:00;;;;;;;8.43;4.45;;;;;;;14.99;100.00;101065.97;5590835;31;34618;-66
2023/09/07 02:45:03;;;;;;;6.62;4.10;;;;;;;14.83;100.00;101064.25;5590839;31;33767;-66
2023/09/07 02:48:06;;;;;;;5.37;4.03;;;;;;;14.69;100.00;101070.38;5590899;31;32345;-66
2023/09/07 02:51:10;;;;;;;6.72;4.30;;;;;;;14.61;100.00;101076.63;5590898;31;34629;-65
2023/09/07 02:54:13;;;;;;;5.03;3.97;;;;;;;14.59;100.00;101075.94;5590732;31;33938;-66
2023/09/07 02:57:16;;;;;;;6.70;4.37;;;;;;;14.50;100.00;101077.00;5590832;31;34548;-66
2023/09/07 03:00:19;;;;;;;8.73;4.05;;;;;;;14.40;100.00;101072.91;5590787;31;34023;-66
2023/09/07 03:03:23;;;;;;;8.30;4.53;;;;;;;14.33;100.00;101072.72;5590753;31;34803;-66
2023/09/07 03:06:27;;;;;;;8.15;4.00;;;;;;;14.27;100.00;101074.28;5590635;31;33851;-66
2023/09/07 03:09:29;;;;;;;7.00;4.55;;;;;;;14.35;100.00;101076.91;5590670;31;33994;-66
2023/09/07 03:12:33;;;;;;;6.40;4.35;;;;;;;14.45;100.00;101074.03;5590512;31;33839;-66
2023/09/07 03:15:37;;;;;;;6.68;4.37;;;;;;;14.49;100.00;101072.66;5590505;31;33927;-66
2023/09/07 03:18:40;;;;;;;6.18;4.45;;;;;;;14.62;100.00;101069.44;5590488;31;33872;-66
2023/09/07 03:21:43;;;;;;;7.68;4.22;;;;;;;14.58;100.00;101070.78;5590548;31;33847;-66
2023/09/07 03:24:46;;;;;;;8.75;4.32;;;;;;;14.50;100.00;101074.34;5590658;31;33939;-66
2023/09/07 03:27:49;;;;;;;6.03;4.20;;;;;;;14.32;100.00;101073.75;5590406;31;35389;-66
2023/09/07 03:30:55;;;;;;;5.82;4.50;;;;;;;14.34;100.00;101072.56;5590519;31;34497;-66
2023/09/07 03:33:58;;;;;;;5.68;4.35;;;;;;;14.45;100.00;101074.03;5589825;31;33985;-66
2023/09/07 03:37:01;;;;;;;7.65;4.60;;;;;;;14.30;100.00;101076.59;5590453;31;35300;-66
2023/09/07 03:40:05;;;;;;;6.43;4.25;;;;;;;14.23;100.00;101080.16;5590179;31;34165;-66
2023/09/07 03:43:09;;;;;;;8.15;4.70;;;;;;;14.22;100.00;101081.97;5590244;31;34042;-67
2023/09/07 03:46:12;;;;;;;6.50;4.80;;;;;;;14.20;100.00;101083.97;5590168;31;34470;-67
2023/09/07 03:49:16;;;;;;;6.60;4.70;;;;;;;14.22;100.00;101083.81;5590183;31;34615;-68
2023/09/07 03:52:24;;;;;;;6.60;4.80;;;;;;;14.17;100.00;101080.84;5590263;31;34578;-68
2023/09/07 03:55:27;;;;;;;5.93;4.50;;;;;;;14.17;100.00;101078.16;5590310;31;33847;-68
2023/09/07 03:58:30;;;;;;;6.65;4.78;;;;;;;14.19;100.00;101076.97;5589983;31;34877;-67
2023/09/07 04:01:33;;;;;;;8.18;4.60;;;;;;;14.25;100.00;101078.13;5590117;31;33949;-67
2023/09/07 04:04:36;;;;;;;7.70;4.87;;;;;;;14.29;100.00;101082.94;5590142;31;33981;-68
2023/09/07 04:07:39;;;;;;;6.70;4.60;;;;;;;14.32;100.00;101087.94;5590088;31;33930;-67
2023/09/07 04:10:42;;;;;;;7.55;4.95;;;;;;;14.32;100.00;101087.09;5589912;31;34130;-67
2023/09/07 04:13:46;;;;;;;8.88;4.80;;;;;;;14.26;100.00;101091.28;5589876;31;33955;-67
2023/09/07 04:16:50;;;;;;;7.32;4.97;;;;;;;14.11;100.00;101081.53;5589210;31;33902;-67
2023/09/07 04:19:53;;;;;;;6.12;4.70;;;;;;;14.02;100.00;101090.56;5589955;31;35075;-68
2023/09/07 04:22:56;;;;;;;10.30;4.82;;;;;;;13.98;100.00;101098.09;5589841;31;33855;-67
2023/09/07 04:26:10;;;;;;;10.35;4.70;;;;;;;14.03;100.00;101109.06;5589877;31;34587;-68
2023/09/07 04:29:13;;;;;;;12.98;5.68;;;;;;;14.21;100.00;101093.66;5589868;31;34591;-67
2023/09/07 04:32:16;;;;;;;11.50;4.70;;;;;;;14.26;100.00;101093.12;5589103;31;33890;-67
2023/09/07 04:35:19;;;;;;;10.45;5.22;;;;;;;14.47;100.00;101096.06;5588871;31;34501;-67
2023/09/07 04:38:21;;;;;;;13.02;5.65;;;;;;;14.41;100.00;101104.75;5589774;31;34544;-67
2023/09/07 04:41:24;;;;;;;10.82;5.90;;;;;;;14.43;100.00;101104.56;5589471;31;35167;-68
2023/09/07 04:44:28;;;;;;;11.15;4.97;;;;;;;14.46;100.00;101099.72;5588659;31;33920;-68
2023/09/07 04:47:31;;;;;;;8.40;5.15;;;;;;;14.49;100.00;101103.88;5589390;31;34474;-68
2023/09/07 04:50:34;;;;;;;9.07;4.95;;;;;;;14.49;100.00;101099.38;5589720;31;33975;-68
2023/09/07 04:53:39;;;;;;;8.50;4.78;;;;;;;14.52;100.00;101095.53;5589505;31;34616;-68
2023/09/07 04:56:41;;;;;;;10.60;4.78;;;;;;;14.59;100.00;101093.81;5589674;31;33739;-68
2023/09/07 04:59:45;;;;;;;16.27;4.97;;;;;;;14.65;100.00;101103.78;5589431;31;33807;-68
2023/09/07 05:02:48;;;;;;;10.05;5.28;;;;;;;14.72;100.00;101102.91;5589447;31;33988;-68
2023/09/07 05:05:53;;;;;;;10.75;5.12;;;;;;;14.73;100.00;101106.41;5589386;31;34628;-68
2023/09/07 05:08:56;;;;;;;8.43;5.18;;;;;;;14.77;100.00;101113.03;5589337;31;34074;-68
2023/09/07 05:11:59;;;;;;;9.52;4.95;;;;;;;14.83;100.00;101112.34;5589473;31;34107;-69
2023/09/07 05:15:02;;;;;;;12.95;5.20;;;;;;;14.97;100.00;101118.75;5588736;31;33935;-69
2023/09/07 05:18:05;;;;;;;8.07;4.90;;;;;;;14.99;100.00;101117.59;5588914;31;34663;-68
2023/09/07 05:21:15;;;;;;;9.55;4.85;;;;;;;14.97;100.00;101124.09;5589163;31;34904;-68
2023/09/07 05:24:18;;;;;;;7.00;4.57;;;;;;;15.13;100.00;101118.63;5589114;31;34604;-68
2023/09/07 05:27:21;;;;;;;9.63;4.75;;;;;;;15.21;100.00;101115.88;5589148;31;33841;-68
2023/09/07 05:30:24;;;;;;;8.85;4.47;;;;;;;15.44;100.00;101118.56;5588883;31;34587;-67
2023/09/07 05:33:27;;;;;;;7.72;4.85;;;;;;;15.41;100.00;101130.41;5588065;31;33794;-68
2023/09/07 05:36:31;;;;;;;9.18;4.40;;;;;;;15.63;100.00;101121.56;5589397;31;33862;-68
2023/09/07 05:39:33;;;;;;;10.40;4.70;;;;;;;15.70;100.00;101128.84;5588167;31;34557;-68
2023/09/07 05:42:36;;;;;;;8.38;4.72;;;;;;;15.79;100.00;101125.91;5588936;31;34818;-69
2023/09/07 05:45:41;;;;;;;8.25;4.60;;;;;;;15.93;100.00;101125.06;5588810;31;33878;-70
2023/09/07 05:48:44;;;;;;;12.15;4.82;;;;;;;15.99;100.00;101126.19;5588865;31;33856;-69
2023/09/07 05:51:47;;;;;;;10.15;4.47;;;;;;;16.16;100.00;101127.66;5588576;31;34462;-69
2023/09/07 05:54:50;;;;;;;8.68;4.70;;;;;;;16.26;100.00;101138.09;5588251;31;34513;-69
2023/09/07 05:57:57;;;;;;;8.38;4.37;;;;;;;16.37;100.00;101137.59;5587882;31;35317;-70
2023/09/07 06:01:00;;;;;;;11.35;4.30;;;;;;;16.48;100.00;101132.59;5587615;31;33906;-69
2023/09/07 06:04:04;;;;;;;9.57;4.97;;;;;;;16.61;100.00;101139.16;5588576;31;34724;-68
2023/09/07 06:07:07;;;;;;;13.15;4.87;;;;;;;16.72;100.00;101136.81;5588126;31;33856;-68
2023/09/07 06:10:10;;;;;;;12.40;4.57;;;;;;;16.82;100.00;101137.34;5588778;31;33879;-68
2023/09/07 06:13:13;;;;;;;10.15;4.47;;;;;;;17.01;100.00;101135.06;5587786;31;34091;-67
2023/09/07 06:16:16;;;;;;;9.82;5.00;;;;;;;17.29;100.00;101152.84;5587974;31;34723;-68
2023/09/07 06:19:19;;;;;;;10.55;5.00;;;;;;;17.45;100.00;101150.94;5587918;31;33942;-69
2023/09/07 06:22:23;;;;;;;10.48;4.87;;;;;;;17.50;100.00;101143.97;5586928;31;33843;-68
2023/09/07 06:25:27;;;;;;;14.48;4.57;;;;;;;17.56;100.00;101161.12;5587958;31;33896;-69
2023/09/07 06:28:30;;;;;;;12.98;4.85;;;;;;;17.64;100.00;101152.97;5587217;31;33800;-68
2023/09/07 06:31:34;;;;;;;11.93;4.70;;;;;;;17.91;100.00;101148.63;5587720;31;34098;-68
2023/09/07 06:34:37;;;;;;;13.60;4.55;;;;;;;18.16;100.00;101147.94;5588291;31;33740;-68
2023/09/07 06:37:42;;;;;;;10.52;4.45;;;;;;;18.65;100.00;101153.16;5588056;31;33845;-68
2023/09/07 06:40:49;;;;;;;11.27;4.95;;;;;;;19.15;100.00;101151.00;5587906;31;33928;-68
2023/09/07 06:43:52;;;;;;;8.20;4.12;;;;;;;20.06;100.00;101156.56;5587603;31;34753;-68
2023/09/07 06:46:56;;;;;;;13.15;3.95;;;;;;;20.46;100.00;101160.00;5587477;31;33774;-68
2023/09/07 06:49:58;;;;;;;10.65;4.43;;;;;;;20.56;100.00;101163.91;5587633;31;34731;-69
2023/09/07 06:53:02;;;;;;;7.32;4.03;;;;;;;21.13;100.00;101162.13;5587411;31;33948;-69
2023/09/07 06:56:06;;;;;;;11.10;4.75;;;;;;;21.02;100.00;101160.94;5587151;31;34484;-69
2023/09/07 06:59:09;;;;;;;9.45;3.87;;;;;;;21.89;90.05;101167.34;5587236;31;33948;-69
2023/09/07 07:02:12;;;;;;;9.63;3.87;;;;;;;23.19;76.20;101166.78;5573568;31;34651;-69
2023/09/07 07:05:15;;;;;;;11.27;4.60;;;;;;;23.04;73.56;101168.31;5587638;31;33930;-69
2023/09/07 07:08:18;;;;;;;8.68;4.00;;;;;;;23.38;70.83;101179.19;5587162;31;33978;-69
2023/09/07 07:11:21;;;;;;;15.02;4.03;;;;;;;22.94;72.90;101169.69;5589988;31;33786;-69
2023/09/07 07:14:24;;;;;;;9.90;3.78;;;;;;;23.69;68.01;101174.56;5590015;31;34323;-70
2023/09/07 07:17:27;;;;;;;8.50;3.85;;;;;;;24.30;65.11;101178.72;5589366;31;33812;-70
2023/09/07 07:20:30;;;;;;;10.65;3.75;;;;;;;25.62;59.36;101180.16;5589737;31;34515;-70
2023/09/07 07:23:34;;;;;;;10.77;3.92;;;;;;;25.88;58.30;101178.66;5589877;31;33815;-71
2023/09/07 07:26:37;;;;;;;8.77;4.00;;;;;;;26.56;55.06;101180.97;5590515;31;33908;-70
2023/09/07 07:29:40;;;;;;;20.35;4.12;;;;;;;25.78;56.61;101179.31;5590078;31;33982;-69
2023/09/07 07:32:43;;;;;;;9.68;4.03;;;;;;;26.39;53.88;101186.47;5590109;31;34239;-70
2023/09/07 07:35:46;;;;;;;20.62;4.03;;;;;;;26.44;53.18;101179.44;5589923;31;34385;-71
2023/09/07 07:38:49;;;;;;;34.47;4.87;;;;;;;27.87;50.60;101188.78;5589134;31;33885;-71
2023/09/07 07:41:53;;;;;;;7.78;3.58;;;;;;;28.33;49.00;101185.25;5589765;31;34602;-70
2023/09/07 07:44:56;;;;;;;13.35;4.00;;;;;;;28.02;48.89;101180.72;5590007;31;34742;-71
2023/09/07 07:48:00;;;;;;;10.20;4.10;;;;;;;29.44;45.28;101184.75;5589822;31;33842;-71
2023/09/07 07:51:04;;;;;;;13.10;3.75;;;;;;;28.51;47.09;101182.06;5588795;31;33912;-71
2023/09/07 07:54:10;;;;;;;11.45;3.97;;;;;;;27.61;49.29;101176.88;5589005;31;33853;-71
2023/09/07 07:57:13;;;;;;;10.50;4.18;;;;;;;28.94;46.23;101177.31;5589712;31;33862;-71
2023/09/07 08:00:17;;;;;;;12.30;3.55;;;;;;;29.11;45.51;101174.31;5589869;31;33400;-71
2023/09/07 08:03:21;;;;;;;11.30;4.10;;;;;;;28.06;47.88;101181.81;5589506;31;33796;-71
2023/09/07 08:06:24;;;;;;;7.50;3.45;;;;;;;29.86;43.94;101181.72;5588892;31;33892;-71
2023/09/07 08:09:27;;;;;;;16.20;4.60;;;;;;;29.15;45.21;101167.22;5589441;31;33934;-71
2023/09/07 08:12:30;;;;;;;16.62;3.62;;;;;;;29.16;46.22;101177.88;5589656;31;33843;-71
2023/09/07 08:15:34;;;;;;;10.20;3.45;;;;;;;30.71;43.32;101179.00;5589239;31;34306;-72
2023/09/07 08:18:37;;;;;;;19.08;3.60;;;;;;;32.90;39.12;101176.66;5588748;31;34292;-71
2023/09/07 08:21:42;;;;;;;12.35;3.62;;;;;;;32.36;39.26;101175.16;5589370;31;34520;-72
2023/09/07 08:24:46;;;;;;;7.75;3.62;;;;;;;32.01;39.06;101172.78;5589592;31;33750;-72
2023/09/07 08:27:50;;;;;;;9.30;3.42;;;;;;;31.15;40.25;101176.31;5588456;31;34877;-71
2023/09/07 08:30:54;;;;;;;12.68;3.83;;;;;;;31.00;40.03;101167.06;5589539;31;33833;-71
2023/09/07 08:34:00;;;;;;;10.90;3.47;;;;;;;31.63;40.04;101178.12;5589370;31;33443;-71
2023/09/07 08:37:05;;;;;;;21.52;4.07;;;;;;;31.12;40.24;101165.91;5575623;31;33860;-71
2023/09/07 08:40:09;;;;;;;6.15;3.70;;;;;;;31.90;38.30;101177.59;5589137;31;33865;-72
2023/09/07 08:43:12;;;;;;;14.80;3.97;;;;;;;32.09;38.19;101164.75;5589043;31;34299;-72
2023/09/07 08:46:23;;;;;;;8.60;3.55;;;;;;;32.87;36.07;101158.84;5589023;31;34175;-71
2023/09/07 08:49:26;;;;;;;69.75;5.80;;;;;;;33.13;35.89;101157.31;5589269;31;34093;-72
2023/09/07 08:52:30;;;;;;;7.50;3.40;;;;;;;33.38;35.24;101155.31;5589166;31;34500;-72
2023/09/07 08:55:33;;;;;;;5.10;3.22;;;;;;;33.94;34.00;101141.34;5588479;31;33826;-72
2023/09/07 08:58:36;;;;;;;12.57;3.60;;;;;;;30.27;39.65;101135.94;5589095;31;33763;-70
2023/09/07 09:01:39;;;;;;;5.70;3.20;;;;;;;29.40;41.52;101134.47;5588730;31;33941;-70
2023/09/07 09:04:42;;;;;;;6.93;3.25;;;;;;;26.81;45.42;101132.25;5588847;31;34201;-70
2023/09/07 09:07:45;;;;;;;7.22;3.45;;;;;;;26.07;47.04;101135.69;5589278;31;33907;-70
2023/09/07 09:10:48;;;;;;;9.30;3.47;;;;;;;26.13;48.03;101132.78;5589087;31;34523;-70
2023/09/07 09:13:52;;;;;;;7.55;3.50;;;;;;;25.88;47.26;101130.53;5589277;31;34695;-69
2023/09/07 09:16:55;;;;;;;7.90;3.50;;;;;;;25.43;47.72;101133.34;5589133;31;34109;-70
2023/09/07 09:19:58;;;;;;;5.12;3.33;;;;;;;25.08;48.71;101122.72;5588798;31;34815;-69
2023/09/07 09:23:04;;;;;;;7.45;3.70;;;;;;;25.03;50.56;101124.53;5589326;31;33859;-69
2023/09/07 09:26:07;;;;;;;6.82;3.37;;;;;;;24.91;48.88;101121.06;5589228;31;33859;-69
2023/09/07 09:29:11;;;;;;;9.60;3.50;;;;;;;24.73;49.87;101123.97;5589120;31;33825;-69
2023/09/07 09:32:14;;;;;;;5.65;3.78;;;;;;;24.92;49.40;101111.84;5588702;31;33798;-68
2023/09/07 09:35:20;;;;;;;10.80;3.80;;;;;;;24.84;49.95;101121.16;5589616;31;33495;-69
2023/09/07 09:38:26;;;;;;;7.43;3.50;;;;;;;24.67;49.83;101118.44;5588879;31;34537;-69
2023/09/07 09:41:33;;;;;;;12.10;3.87;;;;;;;24.50;50.36;101114.81;5589242;31;33920;-69
2023/09/07 09:44:38;;;;;;;10.35;3.58;;;;;;;24.47;50.55;101112.59;5588853;31;33859;-69
2023/09/07 09:47:42;;;;;;;4.82;3.15;;;;;;;24.63;50.16;101117.28;5588826;31;34079;-69
2023/09/07 09:50:48;;;;;;;10.05;3.40;;;;;;;24.47;47.44;101115.31;5588958;31;33969;-68
2023/09/07 09:53:53;;;;;;;3.80;3.20;;;;;;;24.40;49.45;101109.19;5588874;31;33934;-69
2023/09/07 09:56:57;;;;;;;6.40;3.35;;;;;;;24.63;49.48;101103.72;5589024;31;33818;-70
2023/09/07 10:00:06;;;;;;;7.47;3.30;;;;;;;24.64;49.70;101113.47;5588146;31;32539;-68
2023/09/07 10:03:23;;;;;;;6.90;3.25;;;;;;;24.71;49.91;101105.19;5589098;31;34533;-69
2023/09/07 10:06:29;;;;;;;7.37;3.20;;;;;;;24.58;49.28;101105.50;5588597;31;33877;-68
2023/09/07 10:09:33;;;;;;;5.82;3.35;;;;;;;24.84;47.96;101102.16;5588405;31;33909;-68
2023/09/07 10:12:44;;;;;;;7.15;3.10;;;;;;;24.95;48.23;101101.31;5588423;31;34598;-70
2023/09/07 10:16:00;;;;;;;5.50;3.20;;;;;;;25.05;48.22;101097.97;5588661;31;33835;-70
2023/09/07 10:19:14;;;;;;;6.85;4.47;;;;;;;25.12;47.67;101103.25;5588565;31;35508;-69
2023/09/07 10:22:23;;;;;;;7.93;3.00;;;;;;;25.14;46.91;101101.09;5587952;31;33965;-68
2023/09/07 10:25:30;;;;;;;6.57;3.17;;;;;;;25.04;47.04;101099.03;5588025;31;34909;-69
2023/09/07 10:28:33;;;;;;;6.12;3.30;;;;;;;25.12;46.49;101097.81;5587849;31;33732;-70
2023/09/07 10:31:38;;;;;;;5.18;3.12;;;;;;;25.38;45.92;101092.53;5588294;31;33994;-68
2023/09/07 10:34:55;;;;;;;7.37;3.50;;;;;;;25.61;46.22;101094.25;5588015;31;34075;-69
2023/09/07 10:37:58;;;;;;;6.87;3.40;;;;;;;25.76;46.59;101090.94;5588003;31;35390;-70
2023/09/07 10:41:04;;;;;;;5.07;3.33;;;;;;;25.54;46.27;101090.87;5587964;31;33858;-68
2023/09/07 10:44:07;;;;;;;5.22;3.03;;;;;;;25.39;45.31;101093.34;5590166;31;33914;-69
2023/09/07 10:47:10;;;;;;;5.00;3.08;;;;;;;25.68;43.87;101081.31;5590181;31;33788;-68
2023/09/07 10:50:13;;;;;;;6.43;2.90;;;;;;;27.17;41.96;101075.41;5591538;31;34173;-69
2023/09/07 10:53:28;;;;;;;5.45;2.90;;;;;;;31.30;37.10;101082.97;5590678;31;34486;-69
2023/09/07 10:56:32;;;;;;;5.60;2.90;;;;;;;31.90;33.01;101087.03;5590281;31;34028;-69
2023/09/07 10:59:35;;;;;;;7.28;2.92;;;;;;;33.61;31.29;101080.84;5590482;31;34632;-70
2023/09/07 11:02:38;;;;;;;6.35;2.45;;;;;;;35.03;28.82;101083.31;5589856;31;33939;-70
2023/09/07 11:05:41;;;;;;;5.18;2.95;;;;;;;38.76;25.15;101085.22;5590147;31;34544;-70
2023/09/07 11:08:46;;;;;;;6.90;2.75;;;;;;;40.62;22.70;101083.56;5590393;31;33920;-70
2023/09/07 11:11:49;;;;;;;3.80;2.55;;;;;;;41.34;21.12;101078.81;5589773;31;33783;-70
2023/09/07 11:14:53;;;;;;;5.35;2.47;;;;;;;39.94;22.06;101071.53;5590470;31;34011;-71
2023/09/07 11:17:56;;;;;;;4.15;2.70;;;;;;;40.72;20.90;101077.50;5590269;31;33961;-70
2023/09/07 11:21:03;;;;;;;7.00;2.58;;;;;;;40.41;21.47;101071.81;5589364;31;35012;-70
2023/09/07 11:24:06;;;;;;;2.97;2.50;;;;;;;39.58;21.89;101075.06;5590152;31;33950;-71
2023/09/07 11:27:09;;;;;;;3.03;2.37;;;;;;;42.11;19.12;101061.63;5590070;31;33969;-71
2023/09/07 11:30:12;;;;;;;5.03;2.85;;;;;;;42.76;19.10;101073.81;5590175;31;33922;-70
2023/09/07 11:33:15;;;;;;;4.18;2.65;;;;;;;41.36;20.60;101058.94;5590715;31;34869;-70
2023/09/07 11:36:23;;;;;;;4.57;2.78;;;;;;;42.39;19.35;101051.91;5590143;31;34009;-70
2023/09/07 11:39:26;;;;;;;3.50;2.60;;;;;;;43.28;18.19;101056.47;5590439;31;34048;-71
2023/09/07 11:42:29;;;;;;;4.57;2.45;;;;;;;41.80;18.92;101054.91;5590205;31;33734;-71
2023/09/07 11:45:32;;;;;;;6.30;2.90;;;;;;;41.18;20.25;101044.59;5589837;31;34453;-71
2023/09/07 11:48:35;;;;;;;4.80;2.50;;;;;;;41.88;19.60;101042.00;5590330;31;34485;-71
2023/09/07 11:51:38;;;;;;;6.43;2.60;;;;;;;42.24;18.58;101041.59;5590314;31;34665;-71
2023/09/07 11:54:40;;;;;;;5.12;2.50;;;;;;;39.47;20.67;101037.78;5589324;31;33927;-71
2023/09/07 11:57:44;;;;;;;3.08;2.40;;;;;;;40.23;20.43;101039.88;5590032;31;34465;-70
2023/09/07 12:00:47;;;;;;;6.85;2.80;;;;;;;40.23;20.89;101042.66;5589997;31;34588;-71
2023/09/07 12:03:50;;;;;;;4.03;2.58;;;;;;;42.82;18.37;101036.03;5589940;31;34877;-70
2023/09/07 12:06:53;;;;;;;5.35;2.80;;;;;;;40.13;20.93;101029.22;5589795;31;33827;-71
2023/09/07 12:09:57;;;;;;;6.80;3.28;;;;;;;44.29;17.13;101032.50;5590248;31;33977;-71
2023/09/07 12:13:00;;;;;;;5.43;2.85;;;;;;;42.81;18.56;101026.84;5589092;31;33898;-71
2023/09/07 12:16:03;;;;;;;6.78;2.53;;;;;;;42.62;18.03;101023.25;5589755;31;33794;-70
2023/09/07 12:19:06;;;;;;;5.47;2.70;;;;;;;39.57;20.40;101011.53;5589982;31;33719;-71
2023/09/07 12:22:09;;;;;;;7.05;2.72;;;;;;;40.89;19.78;101020.72;5589627;31;34064;-71
2023/09/07 12:25:12;;;;;;;3.85;2.75;;;;;;;43.01;18.43;101019.25;5589699;31;33875;-72
2023/09/07 12:28:21;;;;;;;4.72;2.62;;;;;;;45.63;15.83;101016.25;5589891;31;33755;-71
2023/09/07 12:31:27;;;;;;;5.72;2.72;;;;;;;42.65;17.85;101016.97;5589909;31;34444;-71
2023/09/07 12:34:30;;;;;;;5.28;2.67;;;;;;;42.61;17.71;101013.25;5589751;31;33899;-71
2023/09/07 12:37:37;;;;;;;4.37;2.67;;;;;;;44.14;16.64;101012.72;5589723;31;33957;-71
2023/09/07 12:40:41;;;;;;;7.10;2.70;;;;;;;47.18;15.43;101013.28;5589719;31;33975;-71
2023/09/07 12:43:44;;;;;;;5.05;2.35;;;;;;;47.01;15.09;101011.28;5589536;31;33743;-70
2023/09/07 12:46:47;;;;;;;4.43;2.62;;;;;;;40.41;19.66;101004.25;5589676;31;34922;-71
2023/09/07 12:49:51;;;;;;;4.53;2.60;;;;;;;37.19;21.90;100988.69;5589360;31;33763;-71
2023/09/07 12:52:54;;;;;;;7.32;2.72;;;;;;;42.68;17.62;100991.94;5575763;31;34058;-70
2023/09/07 12:55:57;;;;;;;3.42;2.67;;;;;;;44.47;16.26;101002.72;5589595;31;33868;-71
2023/09/07 12:59:00;;;;;;;5.03;2.78;;;;;;;41.14;18.95;100986.03;5589280;31;33910;-70
2023/09/07 13:02:03;;;;;;;5.47;2.55;;;;;;;40.74;19.17;100991.72;5589326;31;33985;-71
2023/09/07 13:05:06;;;;;;;11.38;3.17;;;;;;;42.66;18.31;100987.84;5588284;31;34070;-72
2023/09/07 13:08:13;;;;;;;7.15;2.70;;;;;;;41.86;18.63;100975.47;5588634;31;33980;-70
2023/09/07 13:11:18;;;;;;;5.30;3.15;;;;;;;42.60;18.42;100980.97;5589298;31;33797;-72
2023/09/07 13:14:21;;;;;;;7.65;2.75;;;;;;;40.98;18.93;100974.03;5589332;31;34000;-70
2023/09/07 13:17:36;;;;;;;3.72;2.97;;;;;;;42.85;17.57;100988.66;5589176;31;33914;-71
2023/09/07 13:20:39;;;;;;;4.07;2.80;;;;;;;43.14;17.40;100969.63;5589318;31;32869;-71
2023/09/07 13:23:43;;;;;;;4.03;2.75;;;;;;;43.24;17.56;100972.59;5589173;31;34013;-70
2023/09/07 13:26:50;;;;;;;8.27;2.90;;;;;;;41.34;18.83;100972.19;5589241;31;33925;-70
2023/09/07 13:29:54;;;;;;;12.77;3.20;;;;;;;41.66;18.39;100968.19;5589115;31;34615;-70
2023/09/07 13:32:57;;;;;;;5.50;2.75;;;;;;;42.71;17.69;100968.03;5589017;31;33824;-71
2023/09/07 13:36:03;;;;;;;7.75;3.00;;;;;;;40.94;18.86;100964.00;5587997;31;35213;-70
2023/09/07 13:39:09;;;;;;;6.20;2.90;;;;;;;39.22;20.30;100950.88;5588378;31;34586;-71
2023/09/07 13:42:14;;;;;;;7.72;2.80;;;;;;;40.39;19.49;100957.31;5587612;31;34079;-70
2023/09/07 13:45:17;;;;;;;7.40;2.80;;;;;;;42.98;17.28;100960.56;5588655;31;33975;-70
2023/09/07 13:48:21;;;;;;;6.57;3.00;;;;;;;44.52;17.17;100961.22;5588672;31;34063;-71
2023/09/07 13:51:24;;;;;;;8.27;2.80;;;;;;;45.92;15.47;100964.78;5588396;31;34037;-70
2023/09/07 13:54:27;;;;;;;6.55;2.83;;;;;;;45.06;15.73;100961.78;5588529;31;34751;-70
2023/09/07 13:57:34;;;;;;;10.85;2.70;;;;;;;42.41;17.18;100953.94;5588681;31;33791;-70
2023/09/07 14:00:39;;;;;;;7.87;2.85;;;;;;;40.31;19.18;100953.53;5587738;31;33846;-70
2023/09/07 14:03:42;;;;;;;4.20;2.62;;;;;;;40.89;18.85;100948.38;5588308;31;34184;-69
2023/09/07 14:06:46;;;;;;;8.15;3.45;;;;;;;41.14;17.94;100943.47;5588597;31;34709;-69
2023/09/07 14:09:49;;;;;;;6.53;3.58;;;;;;;40.48;18.91;100944.06;5586985;31;32280;-69